createdAt,value
2023-04-09T00:00:13.922Z,3.72
2023-04-09T00:02:41.729Z,3.48
2023-04-09T00:05:10.139Z,3.47
2023-04-09T00:07:37.984Z,3.65
2023-04-09T00:10:07.145Z,3.58
2023-04-09T00:12:35.483Z,3.63
2023-04-09T00:15:03.646Z,3.56
2023-04-09T00:17:31.596Z,3.66
2023-04-09T00:19:59.855Z,3.78
2023-04-09T00:22:27.826Z,3.74
2023-04-09T00:24:55.864Z,3.74
2023-04-09T00:27:24.132Z,3.78
2023-04-09T00:29:55.131Z,3.76
2023-04-09T00:32:23.018Z,3.82
2023-04-09T00:34:51.534Z,3.96
2023-04-09T00:37:19.522Z,4.06
2023-04-09T00:39:47.864Z,3.75
2023-04-09T00:42:16.787Z,3.99
2023-04-09T00:44:45.398Z,3.80
2023-04-09T00:47:13.484Z,3.69
2023-04-09T00:49:41.791Z,3.64
2023-04-09T00:52:09.743Z,3.51
2023-04-09T00:54:37.895Z,3.50
2023-04-09T00:57:06.277Z,3.49
2023-04-09T00:59:34.315Z,3.54
2023-04-09T01:02:02.419Z,3.33
2023-04-09T01:04:30.936Z,3.29
2023-04-09T01:07:23.845Z,3.21
2023-04-09T01:10:01.196Z,3.35
2023-04-09T01:12:51.253Z,3.25
2023-04-09T01:15:24.290Z,3.09
2023-04-09T01:18:16.646Z,2.80
2023-04-09T01:21:15.435Z,2.75
2023-04-09T01:24:01.984Z,2.81
2023-04-09T01:27:09.070Z,3.24
2023-04-09T01:29:46.215Z,3.14
2023-04-09T01:32:17.122Z,2.77
2023-04-09T01:34:46.749Z,2.86
2023-04-09T01:37:16.377Z,2.76
2023-04-09T01:39:44.924Z,2.79
2023-04-09T01:42:13.515Z,2.82
2023-04-09T01:44:42.266Z,2.78
2023-04-09T01:47:10.518Z,2.80
2023-04-09T01:49:39.512Z,2.58
2023-04-09T01:52:07.982Z,2.32
2023-04-09T01:54:36.118Z,2.10
2023-04-09T01:57:04.139Z,2.19
2023-04-09T01:59:32.517Z,2.00
2023-04-09T02:02:02.187Z,2.12
2023-04-09T02:04:34.859Z,2.37
2023-04-09T02:07:18.470Z,2.34
2023-04-09T02:09:48.444Z,2.23
2023-04-09T02:12:18.536Z,2.12
2023-04-09T02:14:47.387Z,2.01
2023-04-09T02:17:15.702Z,2.18
2023-04-09T02:19:46.234Z,2.27
2023-04-09T02:22:15.661Z,2.54
2023-04-09T02:24:44.292Z,2.20
2023-04-09T02:27:12.336Z,2.42
2023-04-09T02:29:41.202Z,2.34
2023-04-09T02:32:09.602Z,2.11
2023-04-09T02:34:37.457Z,1.78
2023-04-09T02:37:05.433Z,1.58
2023-04-09T02:39:33.902Z,1.75
2023-04-09T02:42:02.375Z,1.66
2023-04-09T02:44:30.367Z,1.50
2023-04-09T02:46:58.618Z,1.86
2023-04-09T02:49:26.566Z,1.08
2023-04-09T02:51:54.636Z,1.11
2023-04-09T02:54:22.975Z,1.05
2023-04-09T02:56:50.946Z,1.19
2023-04-09T02:59:18.917Z,1.26
2023-04-09T03:01:47.394Z,1.35
2023-04-09T03:04:15.684Z,1.49
2023-04-09T03:06:43.854Z,1.56
2023-04-09T03:09:12.257Z,1.99
2023-04-09T03:11:40.143Z,2.24
2023-04-09T03:14:08.647Z,1.75
2023-04-09T03:16:36.993Z,1.31
2023-04-09T03:19:05.374Z,1.16
2023-04-09T03:21:33.888Z,1.12
2023-04-09T03:24:02.477Z,1.07
2023-04-09T03:26:36.253Z,1.06
2023-04-09T03:29:05.973Z,1.47
2023-04-09T03:31:34.224Z,1.28
2023-04-09T03:34:02.234Z,0.90
2023-04-09T03:36:31.815Z,0.88
2023-04-09T03:39:00.685Z,0.87
2023-04-09T03:41:29.412Z,0.88
2023-04-09T03:43:58.475Z,0.83
2023-04-09T03:46:26.814Z,1.03
2023-04-09T03:48:55.841Z,1.22
2023-04-09T03:51:25.519Z,1.39
2023-04-09T03:53:54.077Z,1.36
2023-04-09T03:56:22.590Z,1.11
2023-04-09T03:58:51.207Z,0.97
2023-04-09T04:01:19.555Z,0.82
2023-04-09T04:03:50.203Z,0.87
2023-04-09T04:06:18.898Z,0.58
2023-04-09T04:08:47.850Z,0.66
2023-04-09T04:11:16.668Z,0.74
2023-04-09T04:13:44.738Z,0.85
2023-04-09T04:16:12.734Z,1.08
2023-04-09T04:18:41.491Z,1.20
2023-04-09T04:21:16.679Z,1.50
2023-04-09T04:23:45.098Z,1.67
2023-04-09T04:26:13.934Z,2.31
2023-04-09T04:28:42.250Z,1.58
2023-04-09T04:31:12.689Z,2.30
2023-04-09T04:33:42.676Z,1.83
2023-04-09T04:36:13.829Z,1.82
2023-04-09T04:38:42.375Z,1.79
2023-04-09T04:41:12.044Z,1.75
2023-04-09T04:43:41.720Z,2.02
2023-04-09T04:46:10.025Z,2.03
2023-04-09T04:48:38.094Z,2.29
2023-04-09T04:51:06.891Z,2.14
2023-04-09T04:53:35.314Z,2.47
2023-04-09T04:56:04.686Z,2.43
2023-04-09T04:58:32.995Z,2.58
2023-04-09T05:01:01.577Z,2.61
2023-04-09T05:03:30.139Z,2.81
2023-04-09T05:05:58.773Z,2.74
2023-04-09T05:08:28.043Z,2.94
2023-04-09T05:10:56.634Z,2.78
2023-04-09T05:13:26.873Z,2.93
2023-04-09T05:15:54.889Z,3.01
2023-04-09T05:18:22.945Z,3.12
2023-04-09T05:20:51.446Z,3.25
2023-04-09T05:23:19.616Z,3.38
2023-04-09T05:25:50.021Z,3.32
2023-04-09T05:28:18.653Z,3.56
2023-04-09T05:30:47.680Z,3.67
2023-04-09T05:33:16.244Z,3.76
2023-04-09T05:35:44.805Z,3.78
2023-04-09T05:38:13.995Z,3.92
2023-04-09T05:40:42.992Z,4.02
2023-04-09T05:43:12.315Z,4.11
2023-04-09T05:45:40.828Z,4.32
2023-04-09T05:48:09.358Z,4.47
2023-04-09T05:50:51.471Z,4.59
2023-04-09T05:53:22.720Z,4.83
2023-04-09T05:55:51.358Z,4.74
2023-04-09T05:58:20.284Z,4.88
2023-04-09T06:00:48.558Z,5.09
2023-04-09T06:03:17.131Z,5.24
2023-04-09T06:05:46.819Z,5.36
2023-04-09T06:08:14.931Z,5.33
2023-04-09T06:10:43.236Z,5.35
2023-04-09T06:13:11.441Z,5.25
2023-04-09T06:15:39.905Z,5.32
2023-04-09T06:18:08.224Z,5.76
2023-04-09T06:20:36.788Z,5.74
2023-04-09T06:23:05.634Z,5.64
2023-04-09T06:25:33.901Z,5.98
2023-04-09T06:28:01.800Z,5.91
2023-04-09T06:30:29.902Z,6.01
2023-04-09T06:32:58.178Z,6.02
2023-04-09T06:35:26.992Z,5.95
2023-04-09T06:37:54.926Z,5.65
2023-04-09T06:40:23.662Z,5.97
2023-04-09T06:42:51.820Z,5.85
2023-04-09T06:45:21.038Z,6.17
2023-04-09T06:47:49.764Z,6.22
2023-04-09T06:50:17.808Z,6.07
2023-04-09T06:52:45.774Z,6.37
2023-04-09T06:55:14.435Z,6.70
2023-04-09T06:57:42.372Z,6.75
2023-04-09T07:00:11.057Z,6.41
2023-04-09T07:02:39.751Z,6.58
2023-04-09T07:05:08.165Z,6.60
2023-04-09T07:07:36.428Z,6.50
2023-04-09T07:10:06.489Z,6.49
2023-04-09T07:12:35.809Z,6.11
2023-04-09T07:15:05.973Z,6.62
2023-04-09T07:17:35.040Z,6.63
2023-04-09T07:20:03.294Z,7.05
2023-04-09T07:22:31.405Z,7.12
2023-04-09T07:24:59.720Z,7.23
2023-04-09T07:27:28.970Z,7.92
2023-04-09T07:29:58.399Z,7.44
2023-04-09T07:32:28.553Z,7.20
2023-04-09T07:34:57.582Z,7.62
2023-04-09T07:37:26.356Z,7.92
2023-04-09T07:39:54.909Z,7.67
2023-04-09T07:42:23.219Z,7.71
2023-04-09T07:44:51.706Z,7.88
2023-04-09T07:47:20.003Z,8.11
2023-04-09T07:49:47.997Z,7.93
2023-04-09T07:52:16.136Z,8.64
2023-04-09T07:54:44.829Z,8.92
2023-04-09T07:57:12.904Z,8.85
2023-04-09T07:59:40.914Z,9.04
2023-04-09T08:02:09.640Z,8.06
2023-04-09T08:04:39.037Z,9.51
2023-04-09T08:07:07.088Z,9.61
2023-04-09T08:09:34.999Z,10.40
2023-04-09T08:12:03.676Z,10.21
2023-04-09T08:14:32.315Z,10.10
2023-04-09T08:17:00.784Z,9.94
2023-04-09T08:19:29.081Z,10.64
2023-04-09T08:21:57.110Z,10.76
2023-04-09T08:24:25.146Z,10.10
2023-04-09T08:26:53.575Z,10.73
2023-04-09T08:29:21.688Z,10.40
2023-04-09T08:31:49.705Z,10.59
2023-04-09T08:34:21.243Z,11.24
2023-04-09T08:36:50.293Z,9.65
2023-04-09T08:39:21.801Z,10.10
2023-04-09T08:41:52.295Z,11.28
2023-04-09T08:44:22.259Z,10.84
2023-04-09T08:46:51.267Z,10.51
2023-04-09T08:49:19.180Z,9.73
2023-04-09T08:51:48.807Z,10.18
2023-04-09T08:54:19.133Z,10.20
2023-04-09T08:56:48.162Z,9.84
2023-04-09T08:59:18.606Z,10.02
2023-04-09T09:01:49.602Z,10.15
2023-04-09T09:04:18.032Z,10.48
2023-04-09T09:06:46.092Z,10.54
2023-04-09T09:09:16.310Z,10.86
2023-04-09T09:11:50.414Z,10.95
2023-04-09T09:14:19.636Z,10.75
2023-04-09T09:16:57.903Z,10.49
2023-04-09T09:19:26.494Z,10.20
2023-04-09T09:21:59.094Z,11.43
2023-04-09T09:24:27.091Z,10.57
2023-04-09T09:26:55.976Z,11.18
2023-04-09T09:29:23.906Z,11.25
2023-04-09T09:31:53.339Z,11.12
2023-04-09T09:34:23.694Z,11.66
2023-04-09T09:36:51.659Z,10.08
2023-04-09T09:39:19.597Z,9.66
2023-04-09T09:41:48.994Z,9.26
2023-04-09T09:44:33.133Z,9.27
2023-04-09T09:47:04.043Z,10.52
2023-04-09T09:49:32.013Z,10.46
2023-04-09T09:52:03.018Z,11.11
2023-04-09T09:54:36.569Z,9.93
2023-04-09T09:57:06.758Z,9.65
2023-04-09T09:59:38.704Z,9.83
2023-04-09T10:02:23.310Z,10.94
2023-04-09T10:04:53.119Z,11.36
2023-04-09T10:07:22.417Z,11.12
2023-04-09T10:09:52.449Z,10.87
2023-04-09T10:12:25.523Z,10.38
2023-04-09T10:14:55.439Z,9.92
2023-04-09T10:17:23.872Z,9.62
2023-04-09T10:20:05.248Z,10.14
2023-04-09T10:22:36.638Z,9.86
2023-04-09T10:25:05.312Z,10.51
2023-04-09T10:27:33.609Z,9.53
2023-04-09T10:30:02.009Z,10.68
2023-04-09T10:32:35.309Z,10.66
2023-04-09T10:35:04.356Z,9.87
2023-04-09T10:37:32.282Z,9.75
2023-04-09T10:40:00.237Z,9.73
2023-04-09T10:42:40.939Z,10.56
2023-04-09T10:45:14.648Z,10.94
2023-04-09T10:47:44.320Z,10.49
2023-04-09T10:50:16.802Z,11.15
2023-04-09T10:52:45.344Z,10.94
2023-04-09T10:55:33.537Z,10.04
2023-04-09T10:58:03.120Z,10.55
2023-04-09T11:00:31.185Z,10.92
2023-04-09T11:03:21.972Z,11.40
2023-04-09T11:06:01.975Z,10.94
2023-04-09T11:08:31.743Z,11.17
2023-04-09T11:11:01.725Z,11.47
2023-04-09T11:13:31.466Z,11.69
2023-04-09T11:16:03.524Z,11.46
2023-04-09T11:18:34.096Z,11.64
2023-04-09T11:21:04.371Z,12.14
2023-04-09T11:23:33.242Z,10.75
2023-04-09T11:26:02.239Z,10.70
2023-04-09T11:28:30.520Z,11.88
2023-04-09T11:30:58.436Z,12.33
2023-04-09T11:33:33.548Z,11.05
2023-04-09T11:36:02.864Z,12.32
2023-04-09T11:38:31.860Z,12.16
2023-04-09T11:40:59.798Z,13.09
2023-04-09T11:43:28.008Z,12.80
2023-04-09T11:45:57.610Z,13.07
2023-04-09T11:48:25.817Z,14.14
2023-04-09T11:50:54.273Z,13.78
2023-04-09T11:53:23.225Z,14.81
2023-04-09T11:55:52.385Z,15.53
2023-04-09T11:58:25.776Z,15.83
2023-04-09T12:01:00.443Z,13.84
2023-04-09T12:03:31.137Z,12.87
2023-04-09T12:06:03.667Z,11.94
2023-04-09T12:08:35.232Z,11.97
2023-04-09T12:11:13.658Z,11.58
2023-04-09T12:13:45.275Z,11.66
2023-04-09T12:16:13.763Z,12.48
2023-04-09T12:18:42.358Z,11.82
2023-04-09T12:21:10.652Z,11.85
2023-04-09T12:23:38.616Z,12.99
2023-04-09T12:26:06.959Z,11.39
2023-04-09T12:28:34.932Z,12.25
2023-04-09T12:31:03.749Z,12.14
2023-04-09T12:33:32.604Z,11.90
2023-04-09T12:36:00.906Z,12.09
2023-04-09T12:38:28.884Z,11.97
2023-04-09T12:40:57.194Z,11.87
2023-04-09T12:43:25.172Z,12.52
2023-04-09T12:45:53.346Z,11.57
2023-04-09T12:48:21.644Z,11.27
2023-04-09T12:50:49.649Z,11.48
2023-04-09T12:53:17.677Z,11.85
2023-04-09T12:55:45.935Z,11.60
2023-04-09T12:58:13.839Z,11.78
2023-04-09T13:00:42.102Z,11.93
2023-04-09T13:03:10.826Z,11.63
2023-04-09T13:05:38.846Z,11.67
2023-04-09T13:08:07.054Z,11.39
2023-04-09T13:10:36.685Z,11.72
2023-04-09T13:13:04.694Z,11.44
2023-04-09T13:15:32.561Z,11.53
2023-04-09T13:18:01.066Z,12.00
2023-04-09T13:20:29.199Z,11.68
2023-04-09T13:22:57.645Z,11.42
2023-04-09T13:25:26.295Z,10.61
2023-04-09T13:27:54.197Z,10.48
2023-04-09T13:30:22.936Z,11.35
2023-04-09T13:32:51.230Z,11.78
2023-04-09T13:35:19.403Z,11.16
2023-04-09T13:37:47.483Z,11.46
2023-04-09T13:40:16.617Z,11.36
2023-04-09T13:42:44.531Z,11.52
2023-04-09T13:45:12.487Z,12.85
2023-04-09T13:47:41.362Z,12.25
2023-04-09T13:50:10.545Z,12.74
2023-04-09T13:52:38.534Z,12.83
2023-04-09T13:55:07.816Z,12.87
2023-04-09T13:57:35.943Z,13.45
2023-04-09T14:00:05.959Z,13.61
2023-04-09T14:02:34.745Z,13.42
2023-04-09T14:05:04.222Z,13.79
2023-04-09T14:07:32.385Z,14.97
2023-04-09T14:10:00.670Z,15.04
2023-04-09T14:12:28.550Z,14.27
2023-04-09T14:14:56.521Z,13.64
2023-04-09T14:17:25.017Z,13.38
2023-04-09T14:19:52.930Z,13.38
2023-04-09T14:22:20.976Z,13.26
2023-04-09T14:24:49.223Z,12.80
2023-04-09T14:27:17.588Z,13.16
2023-04-09T14:29:45.672Z,13.15
2023-04-09T14:32:14.024Z,13.12
2023-04-09T14:34:41.963Z,12.98
2023-04-09T14:37:09.906Z,12.49
2023-04-09T14:39:38.245Z,13.08
2023-04-09T14:42:06.263Z,12.36
2023-04-09T14:44:34.632Z,12.50
2023-04-09T14:47:02.943Z,12.67
2023-04-09T14:49:30.905Z,12.68
2023-04-09T14:51:59.242Z,11.97
2023-04-09T14:54:29.107Z,12.68
2023-04-09T14:56:58.603Z,11.70
2023-04-09T14:59:27.399Z,12.19
2023-04-09T15:01:55.899Z,11.46
2023-04-09T15:04:24.190Z,11.49
2023-04-09T15:06:52.416Z,12.03
2023-04-09T15:09:20.808Z,11.67
2023-04-09T15:11:48.731Z,11.33
2023-04-09T15:14:16.803Z,11.47
2023-04-09T15:16:45.195Z,11.47
2023-04-09T15:19:13.213Z,11.75
2023-04-09T15:21:41.448Z,11.84
2023-04-09T15:24:09.741Z,11.83
2023-04-09T15:26:37.676Z,11.43
2023-04-09T15:29:07.998Z,11.40
2023-04-09T15:31:36.648Z,11.50
2023-04-09T15:34:05.342Z,11.14
2023-04-09T15:36:33.337Z,11.09
2023-04-09T15:39:04.594Z,11.23
2023-04-09T15:41:33.990Z,11.65
2023-04-09T15:44:02.312Z,11.46
2023-04-09T15:46:30.611Z,11.42
2023-04-09T15:48:58.485Z,11.29
2023-04-09T15:51:27.222Z,11.53
2023-04-09T15:53:55.205Z,11.57
2023-04-09T15:56:23.349Z,11.58
2023-04-09T15:58:51.914Z,11.76
2023-04-09T16:01:20.055Z,11.28
2023-04-09T16:03:52.437Z,11.24
2023-04-09T16:06:21.277Z,11.45
2023-04-09T16:08:49.824Z,12.19
2023-04-09T16:11:17.943Z,11.50
2023-04-09T16:13:46.446Z,11.30
2023-04-09T16:16:14.869Z,11.87
2023-04-09T16:18:44.727Z,11.39
2023-04-09T16:21:14.712Z,11.19
2023-04-09T16:23:43.017Z,10.87
2023-04-09T16:26:11.230Z,11.19
2023-04-09T16:28:39.353Z,11.04
2023-04-09T16:31:07.780Z,10.70
2023-04-09T16:33:35.928Z,10.36
2023-04-09T16:36:04.077Z,10.90
2023-04-09T16:38:32.550Z,11.49
2023-04-09T16:41:00.608Z,10.69
2023-04-09T16:43:30.489Z,10.62
2023-04-09T16:46:00.770Z,10.82
2023-04-09T16:48:28.763Z,10.42
2023-04-09T16:50:56.687Z,10.31
2023-04-09T16:53:24.910Z,10.10
2023-04-09T16:55:52.873Z,10.33
2023-04-09T16:58:20.798Z,10.57
2023-04-09T17:00:50.716Z,10.11
2023-04-09T17:03:19.898Z,9.58
2023-04-09T17:05:51.253Z,9.57
2023-04-09T17:08:24.521Z,9.64
2023-04-09T17:10:54.974Z,9.91
2023-04-09T17:13:22.981Z,9.81
2023-04-09T17:15:52.464Z,9.75
2023-04-09T17:18:20.936Z,9.86
2023-04-09T17:20:50.833Z,9.80
2023-04-09T17:23:18.817Z,9.58
2023-04-09T17:25:47.397Z,9.35
2023-04-09T17:28:16.325Z,9.35
2023-04-09T17:30:46.281Z,8.94
2023-04-09T17:33:14.704Z,9.36
2023-04-09T17:35:43.465Z,9.23
2023-04-09T17:38:14.253Z,9.41
2023-04-09T17:40:42.626Z,9.16
2023-04-09T17:43:10.582Z,8.86
2023-04-09T17:45:38.499Z,9.16
2023-04-09T17:48:06.983Z,8.81
2023-04-09T17:50:38.052Z,8.91
2023-04-09T17:53:06.402Z,8.26
2023-04-09T17:55:34.472Z,8.38
2023-04-09T17:58:03.352Z,8.29
2023-04-09T18:00:31.903Z,8.42
2023-04-09T18:03:00.608Z,8.78
2023-04-09T18:05:29.135Z,8.67
2023-04-09T18:07:57.552Z,8.51
2023-04-09T18:10:26.340Z,8.42
2023-04-09T18:12:54.440Z,8.65
2023-04-09T18:15:22.703Z,8.33
2023-04-09T18:17:51.684Z,8.10
2023-04-09T18:20:20.870Z,7.84
2023-04-09T18:22:48.974Z,7.78
2023-04-09T18:25:17.335Z,7.05
2023-04-09T18:27:45.517Z,6.91
2023-04-09T18:30:13.584Z,6.64
2023-04-09T18:32:42.185Z,6.13
2023-04-09T18:35:10.623Z,6.13
2023-04-09T18:37:38.914Z,5.95
2023-04-09T18:40:12.176Z,6.04
2023-04-09T18:42:40.134Z,5.87
2023-04-09T18:45:08.938Z,5.40
2023-04-09T18:47:37.643Z,5.23
2023-04-09T18:50:06.678Z,5.61
2023-04-09T18:52:38.542Z,5.42
2023-04-09T18:55:06.888Z,4.97
2023-04-09T18:57:36.620Z,5.51
2023-04-09T19:00:04.985Z,5.74
2023-04-09T19:02:33.209Z,5.30
2023-04-09T19:05:02.277Z,4.89
2023-04-09T19:07:30.263Z,4.84
2023-04-09T19:09:58.706Z,4.77
2023-04-09T19:12:30.316Z,5.03
2023-04-09T19:15:01.142Z,4.93
2023-04-09T19:17:29.569Z,4.53
2023-04-09T19:19:57.499Z,4.57
2023-04-09T19:22:25.631Z,4.21
2023-04-09T19:24:54.029Z,4.59
2023-04-09T19:27:21.997Z,4.32
2023-04-09T19:29:49.964Z,3.94
2023-04-09T19:32:18.240Z,3.83
2023-04-09T19:34:46.320Z,3.77
2023-04-09T19:37:15.381Z,3.74
2023-04-09T19:39:43.648Z,3.64
2023-04-09T19:42:11.587Z,3.60
2023-04-09T19:44:39.703Z,3.47
2023-04-09T19:47:08.077Z,3.16
2023-04-09T19:49:36.092Z,3.19
2023-04-09T19:52:07.017Z,2.81
2023-04-09T19:54:36.007Z,2.70
2023-04-09T19:57:04.153Z,2.97
2023-04-09T19:59:36.440Z,3.10
2023-04-09T20:02:04.847Z,3.44
2023-04-09T20:04:33.206Z,3.50
2023-04-09T20:07:01.559Z,3.77
2023-04-09T20:09:29.490Z,3.64
2023-04-09T20:12:04.471Z,3.86
2023-04-09T20:14:32.460Z,4.02
2023-04-09T20:17:01.035Z,3.92
2023-04-09T20:19:29.026Z,3.82
2023-04-09T20:21:57.311Z,3.69
2023-04-09T20:24:27.340Z,3.73
2023-04-09T20:26:56.363Z,3.20
2023-04-09T20:29:24.395Z,3.20
2023-04-09T20:31:52.962Z,2.95
2023-04-09T20:34:26.638Z,3.26
2023-04-09T20:36:55.700Z,3.58
2023-04-09T20:39:27.313Z,2.80
2023-04-09T20:41:56.920Z,2.76
2023-04-09T20:44:25.009Z,2.92
2023-04-09T20:46:52.922Z,2.75
2023-04-09T20:49:21.294Z,2.48
2023-04-09T20:51:50.064Z,2.97
2023-04-09T20:54:18.293Z,2.97
2023-04-09T20:56:46.659Z,2.60
2023-04-09T20:59:15.324Z,2.54
2023-04-09T21:01:45.138Z,2.40
2023-04-09T21:04:14.026Z,2.40
2023-04-09T21:06:42.128Z,2.60
2023-04-09T21:09:10.270Z,2.53
2023-04-09T21:11:38.582Z,2.63
2023-04-09T21:14:07.216Z,2.78
2023-04-09T21:16:35.674Z,3.20
2023-04-09T21:19:07.344Z,3.60
2023-04-09T21:21:35.594Z,3.59
2023-04-09T21:24:04.213Z,3.43
2023-04-09T21:26:45.277Z,3.03
2023-04-09T21:29:17.330Z,3.01
2023-04-09T21:31:45.332Z,3.51
2023-04-09T21:34:13.210Z,2.54
2023-04-09T21:36:41.590Z,2.48
2023-04-09T21:39:09.496Z,2.47
2023-04-09T21:41:37.364Z,2.21
2023-04-09T21:44:08.692Z,2.64
2023-04-09T21:46:37.511Z,2.50
2023-04-09T21:49:06.000Z,2.31
2023-04-09T21:51:33.856Z,2.42
2023-04-09T21:54:11.337Z,2.57
2023-04-09T21:56:40.077Z,3.12
2023-04-09T21:59:08.028Z,2.49
2023-04-09T22:01:36.124Z,2.52
2023-04-09T22:04:04.774Z,2.68
2023-04-09T22:06:33.122Z,2.91
2023-04-09T22:09:02.178Z,3.21
2023-04-09T22:11:30.789Z,3.12
2023-04-09T22:13:58.849Z,2.71
2023-04-09T22:16:27.270Z,3.22
2023-04-09T22:18:56.564Z,3.30
2023-04-09T22:21:25.495Z,3.46
2023-04-09T22:23:53.424Z,3.03
2023-04-09T22:26:22.187Z,3.13
2023-04-09T22:28:50.546Z,2.64
2023-04-09T22:31:18.554Z,2.89
2023-04-09T22:33:46.872Z,3.18
2023-04-09T22:36:14.874Z,3.02
2023-04-09T22:38:42.807Z,2.73
2023-04-09T22:41:11.098Z,3.60
2023-04-09T22:43:38.983Z,3.36
2023-04-09T22:46:07.437Z,3.11
2023-04-09T22:48:40.812Z,2.81
2023-04-09T22:51:12.988Z,3.01
2023-04-09T22:53:41.625Z,2.92
2023-04-09T22:56:09.871Z,2.94
2023-04-09T22:58:38.339Z,3.17
2023-04-09T23:01:07.053Z,3.01
2023-04-09T23:03:35.194Z,2.88
2023-04-09T23:06:03.391Z,2.91
2023-04-09T23:08:31.911Z,2.81
2023-04-09T23:10:59.865Z,3.20
2023-04-09T23:13:27.759Z,3.37
2023-04-09T23:15:56.799Z,3.04
2023-04-09T23:18:24.954Z,3.08
2023-04-09T23:20:52.974Z,2.81
2023-04-09T23:23:21.194Z,2.93
2023-04-09T23:25:49.083Z,2.76
2023-04-09T23:28:16.991Z,2.88
2023-04-09T23:30:45.225Z,3.07
2023-04-09T23:33:13.170Z,2.43
2023-04-09T23:35:41.233Z,2.95
2023-04-09T23:38:09.697Z,2.56
2023-04-09T23:40:37.605Z,2.52
2023-04-09T23:43:05.663Z,2.31
2023-04-09T23:45:33.902Z,2.12
2023-04-09T23:48:03.504Z,2.40
2023-04-09T23:50:31.557Z,2.45
2023-04-09T23:53:03.990Z,2.38
2023-04-09T23:55:33.557Z,3.03
2023-04-09T23:58:01.788Z,2.81
